Time;durP1;ratioP1;P1;durP2;ratioP2;P2;SDS_P1;SDS_P2;PMS_P1;PMS_P2;Temp;Humidity;BMP_temperature;BMP_pressure;BME280_temperature;BME280_humidity;BME280_pressure;Samples;Min_cycle;Max_cycle;Signal;HPM_P1;HPM_P2
2022/06/20 00:00:23;;;;;;;;;2.00;1.00;;;;;21.98;65.45;99887.13;5027467;28;45453;-70
2022/06/20 00:02:53;;;;;;;;;0.67;0.33;;;;;21.96;65.30;99874.81;5021516;28;46498;-70
2022/06/20 00:05:25;;;;;;;;;2.00;1.67;;;;;21.68;66.13;99851.63;5014559;28;45516;-72
2022/06/20 00:07:51;;;;;;;;;2.67;1.67;;;;;21.93;66.36;99896.19;5036226;28;45408;-70
2022/06/20 00:10:20;;;;;;;;;1.33;0.33;;;;;21.93;67.01;99894.38;5035908;28;45670;-70
2022/06/20 00:12:46;;;;;;;;;4.00;0.67;;;;;21.81;66.74;99887.63;5016971;28;46263;-70
2022/06/20 00:15:27;;;;;;;;;1.00;0.00;;;;;21.81;67.12;99887.63;5035562;28;45490;-70
2022/06/20 00:17:54;;;;;;;;;1.67;1.00;;;;;21.82;66.95;99892.00;5036667;28;45469;-71
2022/06/20 00:20:20;;;;;;;;;2.67;1.00;;;;;21.74;66.58;99907.28;5035834;28;45603;-70
2022/06/20 00:22:45;;;;;;;;;3.00;2.00;;;;;21.59;67.30;99886.44;5035462;28;45419;-72
2022/06/20 00:25:11;;;;;;;;;1.67;1.00;;;;;21.74;66.66;99912.59;5036102;28;45439;-70
2022/06/20 00:27:37;;;;;;;;;1.67;0.33;;;;;21.63;66.90;99902.25;5015565;28;45479;-70
2022/06/20 00:30:04;;;;;;;;;0.00;0.00;;;;;21.51;66.72;99891.94;5035957;28;45505;-71
2022/06/20 00:32:29;;;;;;;;;2.00;1.00;;;;;21.51;67.42;99891.94;5035447;28;46046;-71
2022/06/20 00:34:55;;;;;;;;;1.00;0.33;;;;;21.53;68.07;99895.44;5035971;28;45472;-71
2022/06/20 00:37:21;;;;;;;;;1.00;1.00;;;;;21.49;67.52;99899.09;5035569;28;45517;-71
2022/06/20 00:39:49;;;;;;;;;1.67;1.00;;;;;21.44;67.63;99885.03;5035765;28;45374;-70
2022/06/20 00:42:16;;;;;;;;;2.00;1.00;;;;;21.56;67.99;99905.13;5035607;28;45419;-73
2022/06/20 00:44:46;;;;;;;;;2.33;0.33;;;;;21.44;66.97;99890.34;5035113;28;45506;-70
2022/06/20 00:47:26;;;;;;;;;1.00;0.33;;;;;21.48;67.88;99902.66;5035668;28;45424;-73
2022/06/20 00:50:12;;;;;;;;;0.33;0.00;;;;;21.42;67.17;99900.09;5035964;28;45315;-71
2022/06/20 00:53:11;;;;;;;;;2.00;0.00;;;;;21.34;67.50;99886.16;5034974;28;46224;-70
2022/06/20 00:55:46;;;;;;;;;2.00;1.00;;;;;21.31;68.42;99891.53;5028937;28;45667;-71
2022/06/20 00:58:31;;;;;;;;;1.00;1.00;;;;;21.30;67.69;99893.31;5034814;28;45556;-70
2022/06/20 01:00:58;;;;;;;;;0.67;0.00;;;;;21.30;67.81;99888.00;5017503;28;45518;-71
2022/06/20 01:03:28;;;;;;;;;0.00;0.00;;;;;21.26;67.49;99896.97;5035315;28;45460;-70
2022/06/20 01:06:00;;;;;;;;;1.00;0.00;;;;;21.22;67.99;99892.63;5014493;28;45388;-69
2022/06/20 01:08:32;;;;;;;;;1.00;1.00;;;;;20.91;68.20;99852.66;5025980;28;45589;-71
2022/06/20 01:10:57;;;;;;;;;1.00;1.00;;;;;21.03;68.02;99895.72;5037452;28;45530;-69
2022/06/20 01:13:24;;;;;;;;;1.00;0.00;;;;;20.90;67.90;99883.66;5038789;28;45454;-73
2022/06/20 01:15:52;;;;;;;;;2.00;1.00;;;;;20.88;68.61;99900.53;5038772;28;45425;-71
2022/06/20 01:18:22;;;;;;;;;2.33;1.00;;;;;20.73;69.39;99880.50;5038376;28;45493;-68
2022/06/20 01:20:50;;;;;;;;;0.00;0.00;;;;;20.80;70.01;99880.31;5011134;28;45483;-69
2022/06/20 01:23:56;;;;;;;;;0.00;0.00;;;;;20.82;69.16;99878.50;5020627;28;45459;-69
2022/06/20 01:26:37;;;;;;;;;0.00;0.00;;;;;20.93;68.87;99888.91;5028217;28;45369;-69
2022/06/20 01:29:07;;;;;;;;;0.00;0.00;;;;;20.82;69.00;99883.81;5026320;28;45557;-69
2022/06/20 01:31:39;;;;;;;;;1.00;1.00;;;;;20.82;70.10;99885.59;5038633;28;45406;-69
2022/06/20 01:34:06;;;;;;;;;2.00;1.00;;;;;20.84;69.49;99884.66;5036542;28;46011;-69
2022/06/20 01:39:22;;;;;;;;;1.00;0.33;;;;;20.71;69.00;99859.31;5029376;28;45470;-68
2022/06/20 01:44:38;;;;;;;;;0.67;0.00;;;;;20.60;69.14;99850.72;5038859;28;45457;-69
2022/06/20 01:47:04;;;;;;;;;1.00;0.00;;;;;20.68;68.86;99864.69;5039428;28;45560;-69
2022/06/20 01:49:32;;;;;;;;;0.00;0.00;;;;;20.71;69.79;99874.34;5039466;28;45575;-69
2022/06/20 01:52:07;;;;;;;;;1.00;0.67;;;;;20.73;69.60;99886.69;5039312;28;45666;-69
2022/06/20 01:54:40;;;;;;;;;1.00;0.67;;;;;20.67;70.63;99870.88;5036321;28;45499;-69
2022/06/20 01:57:08;;;;;;;;;4.00;1.00;;;;;20.75;70.04;99868.06;5037791;28;45361;-69
2022/06/20 02:00:00;;;;;;;;;2.00;1.00;;;;;20.77;69.57;99864.47;5037755;28;45457;-68
2022/06/20 02:02:29;;;;;;;;;0.00;0.00;;;;;20.74;69.59;99853.91;5038777;28;45604;-69
2022/06/20 02:04:54;;;;;;;;;1.67;0.00;;;;;20.77;69.87;99867.13;5037755;28;45495;-69
2022/06/20 02:07:20;;;;;;;;;1.00;0.00;;;;;20.74;69.65;99859.22;5038156;28;45261;-68
2022/06/20 02:09:45;;;;;;;;;2.00;1.00;;;;;20.66;70.30;99845.25;5035672;28;45636;-69
2022/06/20 02:12:12;;;;;;;;;0.33;0.33;;;;;20.65;70.10;99835.53;5036299;28;45455;-69
2022/06/20 02:14:56;;;;;;;;;1.00;1.00;;;;;20.67;70.06;99831.06;5019320;28;47087;-69
2022/06/20 02:17:28;;;;;;;;;1.33;1.00;;;;;20.75;70.44;99853.03;5035976;28;45547;-69
2022/06/20 02:19:56;;;;;;;;;0.00;0.00;;;;;20.78;69.85;99852.94;5038312;28;45389;-69
2022/06/20 02:22:24;;;;;;;;;0.67;0.67;;;;;20.78;70.21;99852.94;5036566;28;45454;-69
2022/06/20 02:24:58;;;;;;;;;0.00;0.00;;;;;20.71;69.90;99830.13;5019606;28;45402;-68
2022/06/20 02:27:59;;;;;;;;;0.00;0.00;;;;;20.75;69.81;99845.06;5019531;28;45482;-68
2022/06/20 02:30:24;;;;;;;;;0.33;0.33;;;;;20.72;69.54;99845.13;4980398;28;45358;-69
2022/06/20 02:32:56;;;;;;;;;0.00;0.00;;;;;20.70;70.34;99843.41;5037821;28;45328;-69
2022/06/20 02:35:22;;;;;;;;;0.67;0.00;;;;;20.56;70.39;99810.06;5037690;28;46403;-69
2022/06/20 02:37:49;;;;;;;;;1.00;1.00;;;;;20.45;69.83;99801.47;5037405;28;45436;-69
2022/06/20 02:40:18;;;;;;;;;1.00;0.00;;;;;20.64;70.11;99828.50;5018820;28;45521;-68
2022/06/20 02:42:52;;;;;;;;;0.00;0.00;;;;;20.70;70.07;99838.97;5037727;28;45454;-69
2022/06/20 02:45:19;;;;;;;;;1.00;0.00;;;;;20.62;69.70;99828.53;5037175;28;45342;-69
2022/06/20 02:47:49;;;;;;;;;0.67;0.33;;;;;20.71;70.14;99842.50;5036563;28;45526;-68
2022/06/20 02:50:20;;;;;;;;;0.33;0.33;;;;;20.71;70.46;99847.81;5022476;28;45399;-69
2022/06/20 02:52:58;;;;;;;;;0.33;0.33;;;;;20.69;69.71;99855.81;5037308;28;45541;-69
2022/06/20 02:55:24;;;;;;;;;1.00;0.67;;;;;20.66;70.13;99853.22;5022159;28;45433;-69
2022/06/20 02:57:57;;;;;;;;;1.00;0.00;;;;;20.66;70.42;99855.88;5035231;28;45400;-69
2022/06/20 03:00:32;;;;;;;;;0.00;0.00;;;;;20.65;70.63;99849.72;5036953;28;45481;-71
2022/06/20 03:03:09;;;;;;;;;2.00;0.00;;;;;20.65;70.46;99856.78;5036940;28;45774;-69
2022/06/20 03:05:35;;;;;;;;;0.67;0.00;;;;;20.55;70.45;99833.97;5036616;28;45458;-70
2022/06/20 03:08:01;;;;;;;;;1.00;1.00;;;;;20.44;70.28;99819.16;5037175;28;45244;-71
2022/06/20 03:10:31;;;;;;;;;1.00;0.00;;;;;20.59;70.90;99838.34;5036749;28;45453;-74
2022/06/20 03:12:58;;;;;;;;;0.33;0.00;;;;;20.59;70.25;99841.00;5019253;28;45510;-73
2022/06/20 03:15:24;;;;;;;;;0.00;0.00;;;;;20.49;70.73;99829.66;5035119;28;46193;-69
2022/06/20 03:17:52;;;;;;;;;1.00;0.00;;;;;20.48;70.08;99827.06;5026625;28;45300;-73
2022/06/20 03:20:21;;;;;;;;;0.00;0.00;;;;;20.55;70.68;99852.53;5027404;28;45363;-68
2022/06/20 03:23:06;;;;;;;;;0.00;0.00;;;;;20.49;70.01;99842.06;5029561;28;45567;-70
2022/06/20 03:25:32;;;;;;;;;0.33;0.00;;;;;20.35;70.46;99816.75;5026299;28;46300;-71
2022/06/20 03:27:58;;;;;;;;;1.00;0.00;;;;;20.47;70.70;99842.09;5027216;28;45454;-70
2022/06/20 03:30:31;;;;;;;;;1.00;0.00;;;;;20.44;70.88;99828.91;5027207;28;45461;-73
2022/06/20 03:32:59;;;;;;;;;2.00;0.00;;;;;20.36;69.83;99825.56;5012809;28;45483;-70
2022/06/20 03:35:26;;;;;;;;;1.00;0.00;;;;;20.36;70.13;99833.53;5024582;28;46164;-73
2022/06/20 03:37:52;;;;;;;;;0.00;0.00;;;;;20.44;70.66;99844.84;5026890;28;45521;-71
2022/06/20 03:40:18;;;;;;;;;0.00;0.00;;;;;19.85;70.86;99739.13;5030248;28;45418;-73
2022/06/20 03:42:44;;;;;;;;;0.00;0.00;;;;;20.36;70.73;99823.78;5029076;28;45560;-72
2022/06/20 03:45:14;;;;;;;;;0.00;0.00;;;;;20.34;70.86;99822.06;5027814;28;45487;-71
2022/06/20 03:48:02;;;;;;;;;0.00;0.00;;;;;20.44;70.60;99837.75;5029249;28;45517;-70
2022/06/20 03:50:35;;;;;;;;;0.00;0.00;;;;;20.40;70.42;99830.75;5029851;28;45460;-72
2022/06/20 03:53:02;;;;;;;;;0.00;0.00;;;;;20.44;70.83;99832.44;5026632;28;45645;-69
2022/06/20 03:55:33;;;;;;;;;1.00;0.00;;;;;20.45;71.21;99838.59;5031283;28;45422;-73
2022/06/20 03:58:08;;;;;;;;;0.00;0.00;;;;;20.40;70.57;99836.06;5036105;28;45552;-69
2022/06/20 04:00:47;;;;;;;;;1.00;0.00;;;;;20.23;71.12;99820.53;5019024;28;45641;-70
2022/06/20 04:03:25;;;;;;;;;1.00;0.00;;;;;20.32;71.61;99829.19;5036281;28;45616;-72
2022/06/20 04:06:03;;;;;;;;;0.00;0.00;;;;;20.36;71.41;99829.09;5035684;28;46168;-72
2022/06/20 04:11:26;;;;;;;;;1.00;0.00;;;;;20.35;71.13;99832.66;5035043;28;45681;-69
2022/06/20 04:14:27;;;;;;;;;0.33;0.00;;;;;20.40;71.49;99849.31;5018623;28;45569;-73
2022/06/20 04:18:26;;;;;;;;;0.33;0.00;;;;;20.22;71.18;99824.06;5007389;28;47622;-69
2022/06/20 04:19:50;;;;;;;;;0.00;0.00;;;;;20.34;71.53;99843.28;5036137;28;45352;-69
2022/06/20 04:22:19;;;;;;;;;0.33;0.00;;;;;20.36;71.27;99839.69;5036584;28;45296;-68
2022/06/20 04:25:01;;;;;;;;;0.00;0.00;;;;;20.36;71.10;99844.13;5036533;28;46166;-68
2022/06/20 04:27:34;;;;;;;;;0.00;0.00;;;;;20.25;70.83;99844.34;5018191;28;46415;-69
2022/06/20 04:30:05;;;;;;;;;1.00;0.00;;;;;20.20;71.09;99857.72;5035523;28;47018;-69
2022/06/20 04:32:37;;;;;;;;;0.00;0.00;;;;;20.18;72.28;99859.50;5036356;28;45339;-68
2022/06/20 04:35:14;;;;;;;;;0.00;0.00;;;;;20.04;72.01;99843.03;5035852;28;45696;-70
2022/06/20 04:37:53;;;;;;;;;0.00;0.00;;;;;20.12;71.85;99858.78;5035256;28;46293;-69
2022/06/20 04:40:35;;;;;;;;;0.33;0.00;;;;;19.93;71.65;99850.31;5036131;28;45318;-70
2022/06/20 04:43:11;;;;;;;;;0.33;0.00;;;;;19.94;71.65;99852.94;5035409;28;45477;-70
2022/06/20 04:45:40;;;;;;;;;0.00;0.00;;;;;20.03;71.29;99857.16;5039257;28;45514;-70
2022/06/20 04:48:18;;;;;;;;;1.00;0.00;;;;;20.06;72.25;99857.13;5039519;28;45367;-71
2022/06/20 04:50:49;;;;;;;;;0.00;0.00;;;;;20.05;71.57;99848.31;5039042;28;45733;-70
2022/06/20 04:53:25;;;;;;;;;0.67;0.00;;;;;20.02;71.77;99847.47;5039610;28;45244;-72
2022/06/20 04:55:54;;;;;;;;;0.00;0.00;;;;;19.96;72.39;99840.53;5039681;28;45520;-74
2022/06/20 04:58:28;;;;;;;;;0.00;0.00;;;;;19.99;71.98;99847.53;5039165;28;45513;-73
2022/06/20 05:00:55;;;;;;;;;0.00;0.00;;;;;19.91;72.29;99837.06;5038612;28;45161;-74
2022/06/20 05:03:27;;;;;;;;;0.00;0.00;;;;;20.00;72.37;99852.81;5039241;28;45486;-71
2022/06/20 05:05:55;;;;;;;;;0.00;0.00;;;;;20.02;72.32;99847.47;5039059;28;45541;-71
2022/06/20 05:08:31;;;;;;;;;1.67;1.00;;;;;20.12;72.49;99858.78;5038817;28;45513;-71
2022/06/20 05:11:17;;;;;;;;;0.00;0.00;;;;;19.99;72.55;99826.31;5038696;28;45448;-73
2022/06/20 05:13:53;;;;;;;;;0.00;0.00;;;;;20.17;72.58;99849.81;5039066;28;45448;-71
2022/06/20 05:16:30;;;;;;;;;0.00;0.00;;;;;20.14;72.31;99833.97;5033870;28;45431;-69
2022/06/20 05:19:08;;;;;;;;;0.33;0.00;;;;;20.07;72.35;99821.72;5033801;28;45431;-70
2022/06/20 05:21:41;;;;;;;;;0.00;0.00;;;;;20.15;72.19;99834.84;5032913;28;45764;-73
2022/06/20 05:24:13;;;;;;;;;0.00;0.00;;;;;20.11;71.61;99823.41;5032951;28;45606;-74
2022/06/20 05:26:43;;;;;;;;;0.00;0.00;;;;;20.09;70.80;99835.81;5034814;28;45490;-69
2022/06/20 05:29:22;;;;;;;;;0.00;0.00;;;;;19.86;71.47;99807.16;5033443;28;45574;-71
2022/06/20 05:31:52;;;;;;;;;0.00;0.00;;;;;19.98;71.59;99844.00;5034106;28;45466;-73
2022/06/20 05:34:36;;;;;;;;;0.00;0.00;;;;;19.88;70.80;99823.91;5037372;28;45521;-75
2022/06/20 05:37:30;;;;;;;;;0.00;0.00;;;;;19.99;72.07;99843.09;5036929;28;45561;-74
2022/06/20 05:40:04;;;;;;;;;1.00;0.00;;;;;19.82;71.68;99827.53;5020351;28;46032;-71
2022/06/20 05:42:30;;;;;;;;;0.00;0.00;;;;;19.85;72.46;99842.50;5035076;28;45612;-69
2022/06/20 05:44:56;;;;;;;;;1.67;0.00;;;;;19.93;71.21;99860.91;5037547;28;45516;-72
2022/06/20 05:47:26;;;;;;;;;1.00;0.00;;;;;19.80;71.53;99837.28;5037366;28;45482;-70
2022/06/20 05:50:16;;;;;;;;;1.00;0.33;;;;;19.88;72.02;99852.19;5037207;28;46129;-70
2022/06/20 05:52:44;;;;;;;;;2.67;2.00;;;;;19.87;72.61;99846.00;5035308;28;45720;-70
2022/06/20 05:55:24;;;;;;;;;1.33;0.00;;;;;19.98;71.10;99846.66;5033483;28;45495;-71
2022/06/20 05:57:50;;;;;;;;;1.00;1.00;;;;;19.94;70.78;99830.84;5033480;28;45449;-69
2022/06/20 06:00:33;;;;;;;;;1.00;1.00;;;;;19.94;71.18;99844.13;5036191;28;45465;-70
2022/06/20 06:03:09;;;;;;;;;1.00;1.00;;;;;19.98;71.91;99859.06;5032425;28;45629;-69
2022/06/20 06:05:47;;;;;;;;;2.00;2.00;;;;;20.14;70.58;99864.94;5035169;28;45351;-71
2022/06/20 06:08:18;;;;;;;;;2.00;2.00;;;;;19.98;71.44;99837.84;5034667;28;45335;-70
2022/06/20 06:10:51;;;;;;;;;2.00;1.00;;;;;20.01;70.77;99841.28;5034725;28;45550;-70
2022/06/20 06:13:46;;;;;;;;;1.00;1.00;;;;;20.04;71.11;99862.44;5026262;28;45552;-70
2022/06/20 06:19:07;;;;;;;;;2.00;1.33;;;;;20.02;71.46;99852.78;5035713;28;45396;-69
2022/06/20 06:21:34;;;;;;;;;3.00;2.00;;;;;20.15;71.71;99856.03;5032583;28;45517;-70
2022/06/20 06:24:01;;;;;;;;;2.00;2.00;;;;;20.27;72.13;99846.06;5018045;28;45455;-72
2022/06/20 06:26:26;;;;;;;;;2.33;2.00;;;;;20.32;71.40;99853.94;5035673;28;45350;-71
2022/06/20 06:28:53;;;;;;;;;3.33;2.00;;;;;20.43;71.27;99859.00;5035687;28;45449;-70
2022/06/20 06:31:26;;;;;;;;;0.00;0.00;;;;;20.49;71.24;99873.91;5035681;28;46478;-70
2022/06/20 06:34:18;;;;;;;;;3.67;2.00;;;;;20.48;70.22;99866.88;5033520;28;45505;-67
2022/06/20 06:36:49;;;;;;;;;3.00;2.00;;;;;20.48;71.38;99866.88;5027687;28;45934;-71
2022/06/20 06:39:42;;;;;;;;;2.33;2.00;;;;;20.61;71.44;99871.91;5035759;28;45579;-70
2022/06/20 06:42:14;;;;;;;;;3.00;2.00;;;;;20.74;70.67;99874.28;5035237;28;45543;-74
2022/06/20 06:44:47;;;;;;;;;2.67;2.00;;;;;20.83;70.04;99877.63;5035100;28;45680;-71
2022/06/20 06:47:23;;;;;;;;;4.00;4.00;;;;;20.89;70.31;99875.72;5032723;28;45433;-71
2022/06/20 06:50:01;;;;;;;;;2.00;2.00;;;;;20.87;69.80;99846.56;5032244;28;45540;-72
2022/06/20 06:52:42;;;;;;;;;2.67;2.00;;;;;21.07;69.88;99864.69;5028939;28;45680;-71
2022/06/20 06:55:29;;;;;;;;;4.00;2.00;;;;;20.63;69.03;99789.59;5018646;28;45574;-72
2022/06/20 06:58:25;;;;;;;;;3.67;2.00;;;;;21.18;69.59;99873.22;5034165;28;45405;-75
2022/06/20 07:00:55;;;;;;;;;2.00;2.00;;;;;21.29;69.53;99867.69;5022262;28;45415;-72
2022/06/20 07:03:47;;;;;;;;;2.00;2.00;;;;;21.44;67.25;99867.28;5036480;28;46458;-73
2022/06/20 07:06:50;;;;;;;;;3.00;2.00;;;;;21.48;67.09;99883.19;5036102;28;45407;-73
2022/06/20 07:09:25;;;;;;;;;4.00;3.00;;;;;21.41;66.99;99859.38;4992571;28;45695;-71
2022/06/20 07:12:04;;;;;;;;;4.00;3.00;;;;;20.96;68.45;99798.53;5026564;28;45324;-73
2022/06/20 07:14:33;;;;;;;;;4.00;4.00;;;;;21.51;68.02;99885.78;5028320;28;46333;-70
2022/06/20 07:17:11;;;;;;;;;2.00;2.00;;;;;21.58;68.35;99879.38;5025910;28;45817;-69
2022/06/20 07:19:41;;;;;;;;;5.00;2.67;;;;;21.59;68.70;99873.16;5026979;28;45478;-69
2022/06/20 07:22:12;;;;;;;;;3.67;2.67;;;;;21.76;67.95;99883.31;5010208;28;45561;-69
2022/06/20 07:24:37;;;;;;;;;3.00;2.33;;;;;21.72;67.04;99876.34;5027777;28;45460;-69
2022/06/20 07:27:11;;;;;;;;;5.00;3.00;;;;;21.74;67.21;99863.88;5028122;28;45357;-69
2022/06/20 07:29:53;;;;;;;;;2.00;2.00;;;;;21.80;66.10;99871.69;5029038;28;45638;-69
2022/06/20 07:32:29;;;;;;;;;5.00;4.00;;;;;21.87;65.35;99883.91;5027649;28;45518;-69
2022/06/20 07:35:02;;;;;;;;;4.00;3.00;;;;;21.71;65.67;99866.66;5027207;28;47629;-70
2022/06/20 07:37:31;;;;;;;;;3.00;2.33;;;;;21.86;66.45;99882.16;5027363;28;45521;-69
2022/06/20 07:40:29;;;;;;;;;4.67;2.67;;;;;21.87;66.77;99883.91;5035599;28;45487;-69
2022/06/20 07:43:05;;;;;;;;;5.00;3.00;;;;;21.88;66.75;99884.78;4957791;28;45508;-70
2022/06/20 07:45:38;;;;;;;;;2.33;2.00;;;;;21.87;67.26;99894.56;5021898;28;45987;-69
2022/06/20 07:48:19;;;;;;;;;2.67;2.00;;;;;21.93;66.83;99885.53;5035797;28;45572;-70
2022/06/20 07:51:08;;;;;;;;;4.00;4.00;;;;;22.01;67.02;99889.72;5035199;28;45799;-71
2022/06/20 07:53:37;;;;;;;;;4.33;3.00;;;;;22.16;66.71;99883.13;5035687;28;45513;-71
2022/06/20 07:56:15;;;;;;;;;4.33;4.33;;;;;22.30;65.67;99887.19;5016985;28;45703;-71
2022/06/20 07:58:54;;;;;;;;;3.33;2.67;;;;;22.23;65.54;99857.22;5035604;28;45568;-70
2022/06/20 08:01:29;;;;;;;;;4.00;3.33;;;;;22.47;65.31;99884.06;5036316;28;45785;-70
2022/06/20 08:04:07;;;;;;;;;3.00;3.00;;;;;22.56;64.99;99894.41;5021199;28;45428;-70
2022/06/20 08:06:42;;;;;;;;;3.67;3.00;;;;;22.24;65.78;99858.97;5036009;28;46348;-73
2022/06/20 08:09:15;;;;;;;;;2.67;2.67;;;;;22.24;65.73;99872.28;5015190;28;45694;-73
2022/06/20 08:11:46;;;;;;;;;4.00;3.00;;;;;22.14;65.31;99868.09;5020176;28;45485;-73
2022/06/20 08:14:42;;;;;;;;;3.67;3.67;;;;;22.15;64.90;99889.34;5035901;28;45268;-73
2022/06/20 08:17:10;;;;;;;;;4.00;2.00;;;;;22.04;66.05;99876.38;5033745;28;46434;-72
2022/06/20 08:19:39;;;;;;;;;5.00;4.00;;;;;22.11;65.79;99871.72;5021687;28;45326;-72
2022/06/20 08:22:13;;;;;;;;;18.00;9.67;;;;;22.19;65.68;99882.16;5039049;28;45486;-71
2022/06/20 08:24:47;;;;;;;;;13.33;8.33;;;;;22.15;65.90;99869.84;5039778;28;45648;-72
2022/06/20 08:27:41;;;;;;;;;23.33;14.67;;;;;22.15;65.66;99861.88;5038913;28;46224;-72
2022/06/20 08:30:34;;;;;;;;;5.67;4.00;;;;;22.29;66.22;99873.03;5033313;28;45521;-71
2022/06/20 08:33:23;;;;;;;;;8.33;6.00;;;;;22.28;65.04;99873.94;5019420;28;45773;-72
2022/06/20 08:35:58;;;;;;;;;2.67;2.67;;;;;22.31;65.34;99862.34;5033073;28;45538;-71
2022/06/20 08:38:44;;;;;;;;;16.00;11.00;;;;;22.43;64.66;99869.97;5032314;28;45987;-72
2022/06/20 08:41:34;;;;;;;;;5.33;3.33;;;;;22.37;64.75;99865.69;5033378;28;45511;-71
2022/06/20 08:44:48;;;;;;;;;3.33;3.00;;;;;22.38;64.02;99875.44;5031127;28;45629;-72
2022/06/20 08:47:32;;;;;;;;;37.33;20.67;;;;;22.47;65.05;99868.09;5015793;28;45481;-71
2022/06/20 08:50:27;;;;;;;;;5.33;5.00;;;;;22.54;65.11;99869.63;5033273;28;45424;-71
2022/06/20 08:53:02;;;;;;;;;2.00;2.00;;;;;22.50;65.37;99871.53;5029066;28;45600;-74
2022/06/20 08:55:41;;;;;;;;;2.67;2.67;;;;;22.36;65.19;99866.63;5031273;28;45807;-71
2022/06/20 08:58:40;;;;;;;;;2.00;2.00;;;;;22.43;65.16;99877.94;5028475;28;45445;-73
2022/06/20 09:01:05;;;;;;;;;2.67;2.67;;;;;22.47;65.77;99878.72;5028907;28;46646;-75
2022/06/20 09:04:02;;;;;;;;;3.00;2.00;;;;;22.49;65.24;99877.75;5029674;28;45439;-72
2022/06/20 09:06:49;;;;;;;;;3.33;3.00;;;;;22.59;65.79;99881.03;5031024;28;46111;-72
2022/06/20 09:09:23;;;;;;;;;4.00;3.00;;;;;22.71;65.05;99880.63;5029225;28;45360;-71
2022/06/20 09:12:10;;;;;;;;;5.00;4.00;;;;;22.82;64.91;99888.31;5033091;28;45463;-69
2022/06/20 09:15:02;;;;;;;;;3.00;3.00;;;;;22.84;64.45;99895.34;5028220;28;45524;-71
2022/06/20 09:17:57;;;;;;;;;5.00;4.00;;;;;22.70;64.32;99875.34;5023302;28;45450;-71
2022/06/20 09:20:38;;;;;;;;;3.00;3.00;;;;;22.59;64.20;99867.72;5016246;28;45523;-74
2022/06/20 09:23:34;;;;;;;;;4.00;3.00;;;;;22.74;64.89;99893.88;5015971;28;47282;-74
2022/06/20 09:26:11;;;;;;;;;3.33;2.33;;;;;22.81;65.50;99884.75;5028828;28;45405;-72
2022/06/20 09:28:49;;;;;;;;;2.33;2.00;;;;;22.85;64.51;99890.88;5018577;28;45767;-72
2022/06/20 09:31:36;;;;;;;;;2.00;2.00;;;;;22.86;63.99;99889.06;5025797;28;45985;-71
2022/06/20 09:34:17;;;;;;;;;4.00;3.00;;;;;22.88;64.00;99896.13;5025347;28;45682;-69
2022/06/20 09:37:00;;;;;;;;;3.00;2.00;;;;;22.87;64.60;99898.81;5038359;28;45470;-70
2022/06/20 09:39:39;;;;;;;;;3.67;3.67;;;;;22.82;64.75;99886.53;5034579;28;45429;-71
2022/06/20 09:42:20;;;;;;;;;3.00;2.00;;;;;22.95;64.90;99896.78;5017492;28;45591;-71
2022/06/20 09:44:48;;;;;;;;;3.00;2.67;;;;;23.05;64.06;99913.38;5016783;28;45771;-70
2022/06/20 09:47:36;;;;;;;;;3.33;2.33;;;;;23.13;63.07;99887.38;5026539;28;45613;-70
2022/06/20 09:50:12;;;;;;;;;3.00;3.00;;;;;23.28;63.48;99894.88;5028999;28;45776;-68
2022/06/20 09:53:05;;;;;;;;;3.00;3.00;;;;;23.33;63.16;99903.56;5016986;28;45524;-69
2022/06/20 09:55:49;;;;;;;;;2.33;2.00;;;;;23.28;63.19;99880.66;5023269;28;45529;-66
2022/06/20 09:58:34;;;;;;;;;3.00;2.67;;;;;23.50;62.95;99910.16;5023632;28;46127;-69
2022/06/20 10:01:16;;;;;;;;;3.00;3.00;;;;;23.51;63.16;99898.56;5015734;28;45489;-68
2022/06/20 10:04:17;;;;;;;;;5.00;4.00;;;;;23.43;62.88;99893.47;5032727;28;45327;-70
2022/06/20 10:06:58;;;;;;;;;3.00;3.00;;;;;23.52;62.87;99889.66;5009130;28;45833;-68
2022/06/20 10:09:45;;;;;;;;;3.00;3.00;;;;;23.58;63.23;99890.31;5037003;28;45553;-68
2022/06/20 10:12:42;;;;;;;;;3.00;3.00;;;;;23.60;63.18;99893.78;5029682;28;45362;-73
2022/06/20 10:15:41;;;;;;;;;3.00;3.00;;;;;23.56;62.71;99896.63;5034164;28;45299;-68
2022/06/20 10:18:19;;;;;;;;;3.00;3.00;;;;;23.46;63.45;99893.38;4999588;28;46188;-73
2022/06/20 10:21:11;;;;;;;;;4.00;3.33;;;;;23.51;62.50;99896.75;5025300;28;45918;-68
2022/06/20 10:24:10;;;;;;;;;3.00;3.00;;;;;23.59;62.72;99892.03;5014684;28;45506;-69
2022/06/20 10:26:44;;;;;;;;;3.33;3.33;;;;;23.74;61.18;99893.31;4995327;28;45552;-68
2022/06/20 10:29:45;;;;;;;;;3.33;3.33;;;;;23.76;61.28;99859.47;5029468;28;47546;-70
2022/06/20 10:32:39;;;;;;;;;4.00;3.67;;;;;24.22;60.83;99886.31;5016995;28;45422;-70
2022/06/20 10:35:19;;;;;;;;;4.33;4.00;;;;;24.49;60.29;99876.41;5016066;28;45340;-70
2022/06/20 10:38:08;;;;;;;;;4.67;4.00;;;;;24.70;59.88;99861.38;5009620;28;45636;-69
2022/06/20 10:41:08;;;;;;;;;3.00;3.00;;;;;25.05;57.93;99859.09;5029084;28;46626;-70
2022/06/20 10:43:39;;;;;;;;;4.00;4.00;;;;;25.37;57.13;99860.47;5035583;28;45470;-70
2022/06/20 10:46:33;;;;;;;;;5.33;5.00;;;;;25.33;57.14;99858.00;5035938;28;45509;-69
2022/06/20 10:49:36;;;;;;;;;6.00;6.00;;;;;25.46;56.85;99867.22;5035358;28;45537;-70
2022/06/20 10:52:18;;;;;;;;;6.00;5.00;;;;;25.27;57.82;99828.81;5036426;28;46448;-70
2022/06/20 10:55:17;;;;;;;;;3.67;3.67;;;;;25.51;57.47;99854.53;5029670;28;45465;-70
2022/06/20 10:58:01;;;;;;;;;5.67;5.00;;;;;25.53;56.52;99839.28;5027734;28;45520;-69
2022/06/20 11:00:33;;;;;;;;;3.67;3.00;;;;;25.43;56.57;99837.06;5028984;28;45518;-70
2022/06/20 11:03:26;;;;;;;;;4.00;3.00;;;;;25.42;56.81;99852.22;5025783;28;46533;-70
2022/06/20 11:06:00;;;;;;;;;7.33;6.00;;;;;25.16;57.65;99813.22;5027249;28;45410;-70
2022/06/20 11:09:05;;;;;;;;;7.00;5.67;;;;;25.36;55.85;99841.81;5026441;28;45596;-71
2022/06/20 11:11:56;;;;;;;;;7.00;4.00;;;;;25.51;55.69;99841.16;5028057;28;45371;-69
2022/06/20 11:14:55;;;;;;;;;5.00;4.33;;;;;25.76;55.29;99837.41;5027481;28;45853;-70
2022/06/20 11:17:33;;;;;;;;;5.00;5.00;;;;;25.97;54.71;99836.47;4999087;28;45448;-70
2022/06/20 11:20:19;;;;;;;;;6.33;5.00;;;;;26.01;55.53;99833.69;5016917;28;45493;-71
2022/06/20 11:22:57;;;;;;;;;3.33;3.00;;;;;25.90;54.52;99821.63;5017380;28;45556;-70
2022/06/20 11:25:46;;;;;;;;;4.00;4.00;;;;;25.94;54.92;99839.31;5017144;28;45486;-70
2022/06/20 11:28:41;;;;;;;;;6.00;5.00;;;;;26.15;55.21;99826.75;5017470;28;45319;-70
2022/06/20 11:31:13;;;;;;;;;4.00;4.00;;;;;26.28;54.36;99834.22;5016556;28;45442;-71
2022/06/20 11:34:09;;;;;;;;;5.00;4.00;;;;;26.13;54.01;99833.97;4999262;28;45471;-70
2022/06/20 11:37:11;;;;;;;;;5.67;5.67;;;;;26.23;53.84;99833.56;5016966;28;45359;-69
2022/06/20 11:39:55;;;;;;;;;5.00;4.00;;;;;26.31;52.49;99840.28;4999095;28;45430;-70
2022/06/20 11:42:53;;;;;;;;;5.00;4.00;;;;;26.62;53.92;99820.16;4999013;28;45426;-70
2022/06/20 11:45:35;;;;;;;;;5.00;5.00;;;;;26.85;52.71;99832.41;5017475;28;45407;-70
2022/06/20 11:48:41;;;;;;;;;4.33;3.33;;;;;26.96;53.30;99816.69;5015754;28;46445;-69
2022/06/20 11:51:45;;;;;;;;;2.33;2.33;;;;;27.28;52.74;99813.38;5016685;28;45528;-71
2022/06/20 11:54:22;;;;;;;;;4.00;3.33;;;;;27.54;52.28;99810.19;5001590;28;45555;-70
2022/06/20 11:57:11;;;;;;;;;3.00;2.00;;;;;27.76;51.98;99801.88;5015859;28;45595;-70
2022/06/20 12:00:06;;;;;;;;;3.67;3.33;;;;;28.35;50.14;99794.25;5016623;28;47742;-71
2022/06/20 12:02:41;;;;;;;;;4.00;4.00;;;;;29.09;49.13;99789.19;5016305;28;45472;-70
2022/06/20 12:05:06;;;;;;;;;5.00;3.33;;;;;29.27;48.40;99790.81;5016578;28;45439;-70
2022/06/20 12:07:52;;;;;;;;;4.67;3.00;;;;;29.21;47.92;99783.13;5016880;28;45318;-70
2022/06/20 12:10:26;;;;;;;;;4.33;4.00;;;;;29.25;47.64;99794.56;5013070;28;46925;-70
2022/06/20 12:13:20;;;;;;;;;6.67;5.33;;;;;29.20;47.12;99788.59;4998974;28;45420;-70
2022/06/20 12:16:11;;;;;;;;;5.33;5.00;;;;;29.33;46.48;99765.38;5016556;28;45447;-71
2022/06/20 12:24:48;;;;;;;;;9.00;8.00;;;;;29.92;44.07;99731.25;5016617;28;45599;-70
2022/06/20 12:27:16;;;;;;;;;7.00;6.00;;;;;29.76;44.77;99734.97;5015987;28;45465;-71
2022/06/20 12:29:43;;;;;;;;;6.00;4.67;;;;;29.89;45.78;99744.03;5016617;28;45455;-70
2022/06/20 12:32:23;;;;;;;;;7.00;6.00;;;;;29.93;45.87;99749.13;5015968;28;45235;-70
2022/06/20 12:34:52;;;;;;;;;5.67;5.67;;;;;29.76;45.43;99746.59;4997771;28;45498;-70
2022/06/20 12:37:26;;;;;;;;;6.00;6.00;;;;;29.42;45.72;99728.97;5016420;28;45513;-70
2022/06/20 12:40:05;;;;;;;;;6.00;5.67;;;;;29.26;46.70;99747.88;5017091;28;45434;-70